sensor_id;sensor_type;location;lat;lon;timestamp;P1;durP1;ratioP1;P2;durP2;ratioP2
24557;SDS011;12726;49.148;8.582;2023-04-06T00:01:54;10.23;;;6.22;;
24557;SDS011;12726;49.148;8.582;2023-04-06T00:04:39;10.35;;;6.20;;
24557;SDS011;12726;49.148;8.582;2023-04-06T00:07:25;13.43;;;6.22;;
24557;SDS011;12726;49.148;8.582;2023-04-06T00:10:12;8.95;;;6.35;;
24557;SDS011;12726;49.148;8.582;2023-04-06T00:12:57;9.13;;;5.90;;
24557;SDS011;12726;49.148;8.582;2023-04-06T00:15:44;12.85;;;6.90;;
24557;SDS011;12726;49.148;8.582;2023-04-06T00:18:29;10.30;;;6.43;;
24557;SDS011;12726;49.148;8.582;2023-04-06T00:21:14;10.52;;;6.85;;
24557;SDS011;12726;49.148;8.582;2023-04-06T00:24:00;10.20;;;6.78;;
24557;SDS011;12726;49.148;8.582;2023-04-06T00:26:47;9.23;;;6.35;;
24557;SDS011;12726;49.148;8.582;2023-04-06T00:29:32;12.18;;;6.93;;
24557;SDS011;12726;49.148;8.582;2023-04-06T00:32:19;8.90;;;6.03;;
24557;SDS011;12726;49.148;8.582;2023-04-06T00:35:05;7.43;;;5.80;;
24557;SDS011;12726;49.148;8.582;2023-04-06T00:37:51;10.98;;;6.47;;
24557;SDS011;12726;49.148;8.582;2023-04-06T00:40:36;8.68;;;5.68;;
24557;SDS011;12726;49.148;8.582;2023-04-06T00:43:23;10.85;;;6.97;;
24557;SDS011;12726;49.148;8.582;2023-04-06T00:46:08;11.77;;;6.40;;
24557;SDS011;12726;49.148;8.582;2023-04-06T00:48:55;8.70;;;6.15;;
24557;SDS011;12726;49.148;8.582;2023-04-06T00:51:41;8.65;;;5.90;;
24557;SDS011;12726;49.148;8.582;2023-04-06T00:54:27;11.60;;;6.28;;
24557;SDS011;12726;49.148;8.582;2023-04-06T00:57:12;11.07;;;7.35;;
24557;SDS011;12726;49.148;8.582;2023-04-06T00:59:58;11.05;;;6.93;;
24557;SDS011;12726;49.148;8.582;2023-04-06T01:02:43;10.95;;;7.03;;
24557;SDS011;12726;49.148;8.582;2023-04-06T01:05:31;9.20;;;6.25;;
24557;SDS011;12726;49.148;8.582;2023-04-06T01:08:18;10.55;;;6.63;;
24557;SDS011;12726;49.148;8.582;2023-04-06T01:11:04;9.35;;;6.47;;
24557;SDS011;12726;49.148;8.582;2023-04-06T01:13:49;13.27;;;7.00;;
24557;SDS011;12726;49.148;8.582;2023-04-06T01:16:35;11.85;;;7.05;;
24557;SDS011;12726;49.148;8.582;2023-04-06T01:19:21;9.88;;;6.60;;
24557;SDS011;12726;49.148;8.582;2023-04-06T01:22:08;12.02;;;6.38;;
24557;SDS011;12726;49.148;8.582;2023-04-06T01:24:55;9.88;;;6.75;;
24557;SDS011;12726;49.148;8.582;2023-04-06T01:27:40;12.43;;;6.80;;
24557;SDS011;12726;49.148;8.582;2023-04-06T01:30:26;10.85;;;6.75;;
24557;SDS011;12726;49.148;8.582;2023-04-06T01:33:11;10.07;;;6.47;;
24557;SDS011;12726;49.148;8.582;2023-04-06T01:35:57;10.18;;;6.60;;
24557;SDS011;12726;49.148;8.582;2023-04-06T01:38:42;12.25;;;7.25;;
24557;SDS011;12726;49.148;8.582;2023-04-06T01:41:29;13.23;;;7.00;;
24557;SDS011;12726;49.148;8.582;2023-04-06T01:44:15;12.05;;;7.25;;
24557;SDS011;12726;49.148;8.582;2023-04-06T01:47:01;11.90;;;7.00;;
24557;SDS011;12726;49.148;8.582;2023-04-06T01:49:47;10.95;;;7.10;;
24557;SDS011;12726;49.148;8.582;2023-04-06T01:52:32;11.38;;;7.60;;
24557;SDS011;12726;49.148;8.582;2023-04-06T01:55:18;13.13;;;8.82;;
24557;SDS011;12726;49.148;8.582;2023-04-06T01:58:05;11.35;;;7.05;;
24557;SDS011;12726;49.148;8.582;2023-04-06T02:00:50;10.88;;;7.35;;
24557;SDS011;12726;49.148;8.582;2023-04-06T02:03:35;12.68;;;7.43;;
24557;SDS011;12726;49.148;8.582;2023-04-06T02:06:20;10.52;;;7.45;;
24557;SDS011;12726;49.148;8.582;2023-04-06T02:09:06;10.27;;;6.97;;
24557;SDS011;12726;49.148;8.582;2023-04-06T02:11:51;11.98;;;7.25;;
24557;SDS011;12726;49.148;8.582;2023-04-06T02:14:38;11.88;;;7.82;;
24557;SDS011;12726;49.148;8.582;2023-04-06T02:17:24;12.40;;;7.30;;
24557;SDS011;12726;49.148;8.582;2023-04-06T02:20:09;14.85;;;7.90;;
24557;SDS011;12726;49.148;8.582;2023-04-06T02:22:56;10.90;;;7.05;;
24557;SDS011;12726;49.148;8.582;2023-04-06T02:25:41;12.82;;;6.55;;
24557;SDS011;12726;49.148;8.582;2023-04-06T02:28:27;9.88;;;6.00;;
24557;SDS011;12726;49.148;8.582;2023-04-06T02:31:14;10.57;;;6.68;;
24557;SDS011;12726;49.148;8.582;2023-04-06T02:33:59;10.68;;;6.53;;
24557;SDS011;12726;49.148;8.582;2023-04-06T02:36:45;8.23;;;5.25;;
24557;SDS011;12726;49.148;8.582;2023-04-06T02:39:31;11.98;;;6.68;;
24557;SDS011;12726;49.148;8.582;2023-04-06T02:42:17;9.55;;;6.38;;
24557;SDS011;12726;49.148;8.582;2023-04-06T02:45:02;9.35;;;6.30;;
24557;SDS011;12726;49.148;8.582;2023-04-06T02:47:50;12.15;;;7.05;;
24557;SDS011;12726;49.148;8.582;2023-04-06T02:50:35;11.52;;;7.43;;
24557;SDS011;12726;49.148;8.582;2023-04-06T02:53:20;12.70;;;7.25;;
24557;SDS011;12726;49.148;8.582;2023-04-06T02:56:06;12.27;;;7.18;;
24557;SDS011;12726;49.148;8.582;2023-04-06T02:58:52;14.77;;;6.97;;
24557;SDS011;12726;49.148;8.582;2023-04-06T03:01:37;10.55;;;6.90;;
24557;SDS011;12726;49.148;8.582;2023-04-06T03:04:24;8.55;;;6.25;;
24557;SDS011;12726;49.148;8.582;2023-04-06T03:07:09;10.48;;;7.03;;
24557;SDS011;12726;49.148;8.582;2023-04-06T03:09:54;9.98;;;6.53;;
24557;SDS011;12726;49.148;8.582;2023-04-06T03:12:40;12.43;;;7.22;;
24557;SDS011;12726;49.148;8.582;2023-04-06T03:15:26;9.07;;;6.53;;
24557;SDS011;12726;49.148;8.582;2023-04-06T03:18:12;10.90;;;6.97;;
24557;SDS011;12726;49.148;8.582;2023-04-06T03:20:58;9.43;;;6.55;;
24557;SDS011;12726;49.148;8.582;2023-04-06T03:23:44;10.35;;;5.85;;
24557;SDS011;12726;49.148;8.582;2023-04-06T03:26:30;8.75;;;6.30;;
24557;SDS011;12726;49.148;8.582;2023-04-06T03:29:15;9.52;;;6.60;;
24557;SDS011;12726;49.148;8.582;2023-04-06T03:32:01;9.02;;;5.85;;
24557;SDS011;12726;49.148;8.582;2023-04-06T03:34:46;11.55;;;7.22;;
24557;SDS011;12726;49.148;8.582;2023-04-06T03:37:33;11.48;;;7.07;;
24557;SDS011;12726;49.148;8.582;2023-04-06T03:40:19;12.25;;;7.30;;
24557;SDS011;12726;49.148;8.582;2023-04-06T03:43:04;11.35;;;7.90;;
24557;SDS011;12726;49.148;8.582;2023-04-06T03:45:50;13.73;;;7.57;;
24557;SDS011;12726;49.148;8.582;2023-04-06T03:48:35;10.80;;;7.18;;
24557;SDS011;12726;49.148;8.582;2023-04-06T03:51:21;11.95;;;7.07;;
24557;SDS011;12726;49.148;8.582;2023-04-06T03:54:07;8.38;;;6.25;;
24557;SDS011;12726;49.148;8.582;2023-04-06T03:56:53;9.07;;;6.00;;
24557;SDS011;12726;49.148;8.582;2023-04-06T03:59:39;8.93;;;5.57;;
24557;SDS011;12726;49.148;8.582;2023-04-06T04:02:24;13.15;;;6.28;;
24557;SDS011;12726;49.148;8.582;2023-04-06T04:05:09;8.75;;;5.80;;
24557;SDS011;12726;49.148;8.582;2023-04-06T04:07:55;10.13;;;5.80;;
24557;SDS011;12726;49.148;8.582;2023-04-06T04:10:41;8.55;;;6.43;;
24557;SDS011;12726;49.148;8.582;2023-04-06T04:13:27;11.18;;;6.07;;
24557;SDS011;12726;49.148;8.582;2023-04-06T04:16:12;12.88;;;6.70;;
24557;SDS011;12726;49.148;8.582;2023-04-06T04:18:58;8.45;;;5.85;;
24557;SDS011;12726;49.148;8.582;2023-04-06T04:21:43;11.32;;;7.20;;
24557;SDS011;12726;49.148;8.582;2023-04-06T04:24:30;12.30;;;7.25;;
24557;SDS011;12726;49.148;8.582;2023-04-06T04:27:16;10.60;;;7.07;;
24557;SDS011;12726;49.148;8.582;2023-04-06T04:30:02;11.00;;;7.50;;
24557;SDS011;12726;49.148;8.582;2023-04-06T04:32:48;11.65;;;6.95;;
24557;SDS011;12726;49.148;8.582;2023-04-06T04:35:33;10.75;;;6.68;;
24557;SDS011;12726;49.148;8.582;2023-04-06T04:38:19;10.30;;;6.93;;
24557;SDS011;12726;49.148;8.582;2023-04-06T04:41:04;11.43;;;6.65;;
24557;SDS011;12726;49.148;8.582;2023-04-06T04:43:51;9.98;;;6.10;;
24557;SDS011;12726;49.148;8.582;2023-04-06T04:46:36;10.95;;;6.43;;
24557;SDS011;12726;49.148;8.582;2023-04-06T04:49:22;11.95;;;6.80;;
24557;SDS011;12726;49.148;8.582;2023-04-06T04:52:07;10.57;;;6.30;;
24557;SDS011;12726;49.148;8.582;2023-04-06T04:54:53;9.68;;;6.60;;
24557;SDS011;12726;49.148;8.582;2023-04-06T04:57:38;9.88;;;6.53;;
24557;SDS011;12726;49.148;8.582;2023-04-06T05:00:25;9.45;;;6.60;;
24557;SDS011;12726;49.148;8.582;2023-04-06T05:03:11;11.98;;;7.38;;
24557;SDS011;12726;49.148;8.582;2023-04-06T05:06:03;11.90;;;7.28;;
24557;SDS011;12726;49.148;8.582;2023-04-06T05:08:49;11.93;;;6.95;;
24557;SDS011;12726;49.148;8.582;2023-04-06T05:11:35;11.73;;;7.05;;
24557;SDS011;12726;49.148;8.582;2023-04-06T05:14:20;12.45;;;8.35;;
24557;SDS011;12726;49.148;8.582;2023-04-06T05:17:07;14.00;;;8.45;;
24557;SDS011;12726;49.148;8.582;2023-04-06T05:19:52;10.98;;;7.90;;
24557;SDS011;12726;49.148;8.582;2023-04-06T05:22:38;13.45;;;7.50;;
24557;SDS011;12726;49.148;8.582;2023-04-06T05:25:24;11.30;;;6.95;;
24557;SDS011;12726;49.148;8.582;2023-04-06T05:28:09;10.88;;;7.18;;
24557;SDS011;12726;49.148;8.582;2023-04-06T05:30:58;10.90;;;7.47;;
24557;SDS011;12726;49.148;8.582;2023-04-06T05:33:44;12.48;;;7.40;;
24557;SDS011;12726;49.148;8.582;2023-04-06T05:36:30;13.13;;;8.73;;
24557;SDS011;12726;49.148;8.582;2023-04-06T05:39:15;11.25;;;8.00;;
24557;SDS011;12726;49.148;8.582;2023-04-06T05:42:03;14.52;;;8.57;;
24557;SDS011;12726;49.148;8.582;2023-04-06T05:44:49;12.52;;;8.63;;
24557;SDS011;12726;49.148;8.582;2023-04-06T05:47:34;13.82;;;8.38;;
24557;SDS011;12726;49.148;8.582;2023-04-06T05:50:21;15.88;;;8.70;;
24557;SDS011;12726;49.148;8.582;2023-04-06T05:53:07;16.67;;;8.65;;
24557;SDS011;12726;49.148;8.582;2023-04-06T05:55:52;12.10;;;7.82;;
24557;SDS011;12726;49.148;8.582;2023-04-06T05:58:38;16.00;;;9.00;;
24557;SDS011;12726;49.148;8.582;2023-04-06T06:01:23;13.27;;;8.45;;
24557;SDS011;12726;49.148;8.582;2023-04-06T06:04:09;14.18;;;9.07;;
24557;SDS011;12726;49.148;8.582;2023-04-06T06:06:56;15.32;;;9.13;;
24557;SDS011;12726;49.148;8.582;2023-04-06T06:09:41;12.50;;;7.78;;
24557;SDS011;12726;49.148;8.582;2023-04-06T06:12:27;16.17;;;9.02;;
24557;SDS011;12726;49.148;8.582;2023-04-06T06:15:12;14.02;;;8.05;;
24557;SDS011;12726;49.148;8.582;2023-04-06T06:17:57;13.25;;;8.20;;
24557;SDS011;12726;49.148;8.582;2023-04-06T06:20:43;12.60;;;8.23;;
24557;SDS011;12726;49.148;8.582;2023-04-06T06:23:30;12.82;;;7.60;;
24557;SDS011;12726;49.148;8.582;2023-04-06T06:26:15;12.63;;;7.32;;
24557;SDS011;12726;49.148;8.582;2023-04-06T06:29:00;11.40;;;7.22;;
24557;SDS011;12726;49.148;8.582;2023-04-06T06:31:46;9.73;;;7.38;;
24557;SDS011;12726;49.148;8.582;2023-04-06T06:34:31;11.32;;;7.25;;
24557;SDS011;12726;49.148;8.582;2023-04-06T06:37:17;13.77;;;7.05;;
24557;SDS011;12726;49.148;8.582;2023-04-06T06:40:04;10.20;;;7.40;;
24557;SDS011;12726;49.148;8.582;2023-04-06T06:42:50;11.15;;;7.65;;
24557;SDS011;12726;49.148;8.582;2023-04-06T06:45:36;13.50;;;7.57;;
24557;SDS011;12726;49.148;8.582;2023-04-06T06:48:21;11.23;;;7.45;;
24557;SDS011;12726;49.148;8.582;2023-04-06T06:51:07;9.20;;;6.82;;
24557;SDS011;12726;49.148;8.582;2023-04-06T06:53:53;8.52;;;7.50;;
24557;SDS011;12726;49.148;8.582;2023-04-06T06:56:40;11.07;;;6.82;;
24557;SDS011;12726;49.148;8.582;2023-04-06T06:59:25;12.48;;;6.43;;
24557;SDS011;12726;49.148;8.582;2023-04-06T07:02:10;8.90;;;6.63;;
24557;SDS011;12726;49.148;8.582;2023-04-06T07:04:56;12.25;;;7.15;;
24557;SDS011;12726;49.148;8.582;2023-04-06T07:07:41;10.80;;;6.97;;
24557;SDS011;12726;49.148;8.582;2023-04-06T07:10:27;11.10;;;6.93;;
24557;SDS011;12726;49.148;8.582;2023-04-06T07:13:13;11.30;;;6.75;;
24557;SDS011;12726;49.148;8.582;2023-04-06T07:16:02;9.75;;;6.03;;
24557;SDS011;12726;49.148;8.582;2023-04-06T07:18:48;12.25;;;6.03;;
24557;SDS011;12726;49.148;8.582;2023-04-06T07:21:34;8.80;;;5.45;;
24557;SDS011;12726;49.148;8.582;2023-04-06T07:24:19;9.05;;;5.45;;
24557;SDS011;12726;49.148;8.582;2023-04-06T07:27:04;8.65;;;5.40;;
24557;SDS011;12726;49.148;8.582;2023-04-06T07:29:51;9.02;;;5.40;;
24557;SDS011;12726;49.148;8.582;2023-04-06T07:32:36;9.30;;;5.53;;
24557;SDS011;12726;49.148;8.582;2023-04-06T07:35:22;7.07;;;5.20;;
24557;SDS011;12726;49.148;8.582;2023-04-06T07:38:08;11.25;;;6.00;;
24557;SDS011;12726;49.148;8.582;2023-04-06T07:40:53;7.82;;;5.40;;
24557;SDS011;12726;49.148;8.582;2023-04-06T07:43:39;9.35;;;5.63;;
24557;SDS011;12726;49.148;8.582;2023-04-06T07:46:25;8.70;;;5.50;;
24557;SDS011;12726;49.148;8.582;2023-04-06T07:49:11;8.95;;;6.00;;
24557;SDS011;12726;49.148;8.582;2023-04-06T07:51:56;9.38;;;6.75;;
24557;SDS011;12726;49.148;8.582;2023-04-06T07:54:42;10.20;;;5.50;;
24557;SDS011;12726;49.148;8.582;2023-04-06T07:57:27;7.75;;;5.68;;
24557;SDS011;12726;49.148;8.582;2023-04-06T08:00:13;6.30;;;5.45;;
24557;SDS011;12726;49.148;8.582;2023-04-06T08:03:01;6.20;;;5.10;;
24557;SDS011;12726;49.148;8.582;2023-04-06T08:05:46;9.73;;;6.32;;
24557;SDS011;12726;49.148;8.582;2023-04-06T08:08:31;7.50;;;5.07;;
24557;SDS011;12726;49.148;8.582;2023-04-06T08:11:17;9.25;;;4.97;;
24557;SDS011;12726;49.148;8.582;2023-04-06T08:14:02;7.10;;;5.25;;
24557;SDS011;12726;49.148;8.582;2023-04-06T08:16:55;8.17;;;5.37;;
24557;SDS011;12726;49.148;8.582;2023-04-06T08:19:43;10.07;;;5.72;;
24557;SDS011;12726;49.148;8.582;2023-04-06T08:22:28;6.28;;;4.75;;
24557;SDS011;12726;49.148;8.582;2023-04-06T08:25:14;8.93;;;6.00;;
24557;SDS011;12726;49.148;8.582;2023-04-06T08:27:59;8.18;;;5.50;;
24557;SDS011;12726;49.148;8.582;2023-04-06T08:30:45;11.80;;;6.30;;
24557;SDS011;12726;49.148;8.582;2023-04-06T08:33:30;8.65;;;6.15;;
24557;SDS011;12726;49.148;8.582;2023-04-06T08:36:20;9.25;;;6.00;;
24557;SDS011;12726;49.148;8.582;2023-04-06T08:39:06;8.93;;;5.82;;
24557;SDS011;12726;49.148;8.582;2023-04-06T08:41:52;7.18;;;5.70;;
24557;SDS011;12726;49.148;8.582;2023-04-06T08:44:40;9.48;;;5.90;;
24557;SDS011;12726;49.148;8.582;2023-04-06T08:47:26;8.27;;;5.85;;
24557;SDS011;12726;49.148;8.582;2023-04-06T08:50:12;9.95;;;6.20;;
24557;SDS011;12726;49.148;8.582;2023-04-06T08:53:00;10.63;;;6.53;;
24557;SDS011;12726;49.148;8.582;2023-04-06T08:55:46;9.15;;;6.03;;
24557;SDS011;12726;49.148;8.582;2023-04-06T08:58:33;7.55;;;5.60;;
24557;SDS011;12726;49.148;8.582;2023-04-06T09:01:20;9.60;;;5.68;;
24557;SDS011;12726;49.148;8.582;2023-04-06T09:04:07;9.10;;;6.43;;
24557;SDS011;12726;49.148;8.582;2023-04-06T09:06:54;8.65;;;6.10;;
24557;SDS011;12726;49.148;8.582;2023-04-06T09:09:41;6.25;;;5.32;;
24557;SDS011;12726;49.148;8.582;2023-04-06T09:12:31;6.90;;;5.60;;
24557;SDS011;12726;49.148;8.582;2023-04-06T09:15:18;6.55;;;5.38;;
24557;SDS011;12726;49.148;8.582;2023-04-06T09:18:04;8.38;;;5.75;;
24557;SDS011;12726;49.148;8.582;2023-04-06T09:20:56;8.75;;;5.78;;
24557;SDS011;12726;49.148;8.582;2023-04-06T09:23:42;8.68;;;5.95;;
24557;SDS011;12726;49.148;8.582;2023-04-06T09:26:29;9.70;;;5.90;;
24557;SDS011;12726;49.148;8.582;2023-04-06T09:29:23;10.05;;;6.15;;
24557;SDS011;12726;49.148;8.582;2023-04-06T09:32:10;9.82;;;6.40;;
24557;SDS011;12726;49.148;8.582;2023-04-06T09:35:06;10.82;;;6.15;;
24557;SDS011;12726;49.148;8.582;2023-04-06T09:37:52;8.90;;;5.77;;
24557;SDS011;12726;49.148;8.582;2023-04-06T09:40:47;11.75;;;6.07;;
24557;SDS011;12726;49.148;8.582;2023-04-06T09:43:35;9.10;;;6.07;;
24557;SDS011;12726;49.148;8.582;2023-04-06T09:46:20;13.65;;;6.13;;
24557;SDS011;12726;49.148;8.582;2023-04-06T09:49:07;7.47;;;5.30;;
24557;SDS011;12726;49.148;8.582;2023-04-06T09:51:54;7.53;;;4.90;;
24557;SDS011;12726;49.148;8.582;2023-04-06T09:54:43;7.68;;;5.45;;
24557;SDS011;12726;49.148;8.582;2023-04-06T09:57:32;7.07;;;5.80;;
24557;SDS011;12726;49.148;8.582;2023-04-06T10:00:23;8.15;;;5.20;;
24557;SDS011;12726;49.148;8.582;2023-04-06T10:03:14;8.18;;;6.03;;
24557;SDS011;12726;49.148;8.582;2023-04-06T10:06:13;9.05;;;5.35;;
24557;SDS011;12726;49.148;8.582;2023-04-06T10:08:59;11.63;;;5.88;;
24557;SDS011;12726;49.148;8.582;2023-04-06T10:11:47;7.35;;;5.50;;
24557;SDS011;12726;49.148;8.582;2023-04-06T10:14:34;13.85;;;5.75;;
24557;SDS011;12726;49.148;8.582;2023-04-06T10:17:22;5.57;;;4.70;;
24557;SDS011;12726;49.148;8.582;2023-04-06T10:20:09;10.80;;;5.20;;
24557;SDS011;12726;49.148;8.582;2023-04-06T10:22:59;8.02;;;5.20;;
24557;SDS011;12726;49.148;8.582;2023-04-06T10:25:53;6.38;;;5.00;;
24557;SDS011;12726;49.148;8.582;2023-04-06T10:28:40;9.32;;;5.25;;
24557;SDS011;12726;49.148;8.582;2023-04-06T10:31:27;8.73;;;5.63;;
24557;SDS011;12726;49.148;8.582;2023-04-06T10:34:14;8.50;;;5.70;;
24557;SDS011;12726;49.148;8.582;2023-04-06T10:37:00;8.55;;;5.18;;
24557;SDS011;12726;49.148;8.582;2023-04-06T10:39:55;9.80;;;5.88;;
24557;SDS011;12726;49.148;8.582;2023-04-06T10:42:42;8.15;;;5.18;;
24557;SDS011;12726;49.148;8.582;2023-04-06T10:45:27;7.13;;;5.00;;
24557;SDS011;12726;49.148;8.582;2023-04-06T10:48:17;8.10;;;5.10;;
24557;SDS011;12726;49.148;8.582;2023-04-06T10:51:08;6.65;;;4.85;;
24557;SDS011;12726;49.148;8.582;2023-04-06T10:53:55;6.50;;;4.70;;
24557;SDS011;12726;49.148;8.582;2023-04-06T10:56:41;8.15;;;5.13;;
24557;SDS011;12726;49.148;8.582;2023-04-06T10:59:28;7.30;;;4.97;;
24557;SDS011;12726;49.148;8.582;2023-04-06T11:02:20;8.38;;;5.03;;
24557;SDS011;12726;49.148;8.582;2023-04-06T11:05:07;7.20;;;5.30;;
24557;SDS011;12726;49.148;8.582;2023-04-06T11:07:53;7.03;;;5.20;;
24557;SDS011;12726;49.148;8.582;2023-04-06T11:10:39;7.22;;;4.97;;
24557;SDS011;12726;49.148;8.582;2023-04-06T11:13:24;7.05;;;5.30;;
24557;SDS011;12726;49.148;8.582;2023-04-06T11:16:13;7.68;;;5.32;;
24557;SDS011;12726;49.148;8.582;2023-04-06T11:19:00;7.38;;;5.22;;
24557;SDS011;12726;49.148;8.582;2023-04-06T11:21:47;7.35;;;5.63;;
24557;SDS011;12726;49.148;8.582;2023-04-06T11:24:35;8.63;;;5.72;;
24557;SDS011;12726;49.148;8.582;2023-04-06T11:27:20;9.02;;;5.60;;
24557;SDS011;12726;49.148;8.582;2023-04-06T11:30:07;9.00;;;5.32;;
24557;SDS011;12726;49.148;8.582;2023-04-06T11:32:59;9.35;;;5.15;;
24557;SDS011;12726;49.148;8.582;2023-04-06T11:35:45;8.93;;;6.65;;
24557;SDS011;12726;49.148;8.582;2023-04-06T11:38:31;9.88;;;6.25;;
24557;SDS011;12726;49.148;8.582;2023-04-06T11:41:18;9.27;;;5.50;;
24557;SDS011;12726;49.148;8.582;2023-04-06T11:44:03;6.63;;;5.45;;
24557;SDS011;12726;49.148;8.582;2023-04-06T11:46:53;8.43;;;5.47;;
24557;SDS011;12726;49.148;8.582;2023-04-06T11:49:42;6.88;;;5.43;;
24557;SDS011;12726;49.148;8.582;2023-04-06T11:52:29;8.55;;;5.80;;
24557;SDS011;12726;49.148;8.582;2023-04-06T11:55:15;8.35;;;5.40;;
24557;SDS011;12726;49.148;8.582;2023-04-06T11:58:03;8.43;;;5.10;;
24557;SDS011;12726;49.148;8.582;2023-04-06T12:00:49;8.35;;;5.90;;
24557;SDS011;12726;49.148;8.582;2023-04-06T12:03:35;7.97;;;5.63;;
24557;SDS011;12726;49.148;8.582;2023-04-06T12:06:20;7.13;;;5.13;;
24557;SDS011;12726;49.148;8.582;2023-04-06T12:09:05;6.93;;;4.68;;
24557;SDS011;12726;49.148;8.582;2023-04-06T12:11:50;6.97;;;5.03;;
24557;SDS011;12726;49.148;8.582;2023-04-06T12:14:37;8.07;;;5.47;;
24557;SDS011;12726;49.148;8.582;2023-04-06T12:17:23;8.75;;;5.50;;
24557;SDS011;12726;49.148;8.582;2023-04-06T12:20:09;8.75;;;5.28;;
24557;SDS011;12726;49.148;8.582;2023-04-06T12:22:55;7.68;;;4.78;;
24557;SDS011;12726;49.148;8.582;2023-04-06T12:25:41;8.35;;;5.03;;
24557;SDS011;12726;49.148;8.582;2023-04-06T12:28:27;8.02;;;4.80;;
24557;SDS011;12726;49.148;8.582;2023-04-06T12:31:17;8.57;;;4.82;;
24557;SDS011;12726;49.148;8.582;2023-04-06T12:34:03;7.47;;;5.30;;
24557;SDS011;12726;49.148;8.582;2023-04-06T12:36:49;7.35;;;5.00;;
24557;SDS011;12726;49.148;8.582;2023-04-06T12:39:34;5.45;;;4.57;;
24557;SDS011;12726;49.148;8.582;2023-04-06T12:42:20;5.88;;;5.15;;
24557;SDS011;12726;49.148;8.582;2023-04-06T12:45:05;11.40;;;5.70;;
24557;SDS011;12726;49.148;8.582;2023-04-06T12:47:53;7.05;;;4.57;;
24557;SDS011;12726;49.148;8.582;2023-04-06T12:50:38;6.78;;;4.80;;
24557;SDS011;12726;49.148;8.582;2023-04-06T12:53:24;8.40;;;5.25;;
24557;SDS011;12726;49.148;8.582;2023-04-06T12:56:11;7.78;;;5.00;;
24557;SDS011;12726;49.148;8.582;2023-04-06T12:58:58;7.25;;;5.45;;
24557;SDS011;12726;49.148;8.582;2023-04-06T13:01:44;9.93;;;5.90;;
24557;SDS011;12726;49.148;8.582;2023-04-06T13:04:31;7.45;;;5.03;;
24557;SDS011;12726;49.148;8.582;2023-04-06T13:07:17;5.82;;;4.80;;
24557;SDS011;12726;49.148;8.582;2023-04-06T13:10:03;7.07;;;4.63;;
24557;SDS011;12726;49.148;8.582;2023-04-06T13:12:49;7.85;;;5.10;;
24557;SDS011;12726;49.148;8.582;2023-04-06T13:15:34;8.05;;;5.38;;
24557;SDS011;12726;49.148;8.582;2023-04-06T13:18:20;7.53;;;5.13;;
24557;SDS011;12726;49.148;8.582;2023-04-06T13:21:08;7.25;;;4.70;;
24557;SDS011;12726;49.148;8.582;2023-04-06T13:23:53;7.13;;;5.03;;
24557;SDS011;12726;49.148;8.582;2023-04-06T13:26:39;6.45;;;4.38;;
24557;SDS011;12726;49.148;8.582;2023-04-06T13:29:24;6.82;;;4.65;;
24557;SDS011;12726;49.148;8.582;2023-04-06T13:32:10;8.40;;;4.13;;
24557;SDS011;12726;49.148;8.582;2023-04-06T13:34:55;6.57;;;4.63;;
24557;SDS011;12726;49.148;8.582;2023-04-06T13:37:42;8.15;;;5.00;;
24557;SDS011;12726;49.148;8.582;2023-04-06T13:40:27;7.25;;;4.65;;
24557;SDS011;12726;49.148;8.582;2023-04-06T13:43:13;7.25;;;4.50;;
24557;SDS011;12726;49.148;8.582;2023-04-06T13:45:59;7.32;;;4.60;;
24557;SDS011;12726;49.148;8.582;2023-04-06T13:48:44;6.32;;;4.47;;
24557;SDS011;12726;49.148;8.582;2023-04-06T13:51:30;5.95;;;4.10;;
24557;SDS011;12726;49.148;8.582;2023-04-06T13:54:17;5.47;;;4.03;;
24557;SDS011;12726;49.148;8.582;2023-04-06T13:57:03;5.88;;;4.57;;
24557;SDS011;12726;49.148;8.582;2023-04-06T13:59:49;7.57;;;3.95;;
24557;SDS011;12726;49.148;8.582;2023-04-06T14:02:34;8.85;;;5.07;;
24557;SDS011;12726;49.148;8.582;2023-04-06T14:05:20;6.28;;;4.43;;
24557;SDS011;12726;49.148;8.582;2023-04-06T14:08:05;7.15;;;4.65;;
24557;SDS011;12726;49.148;8.582;2023-04-06T14:10:52;7.80;;;4.47;;
24557;SDS011;12726;49.148;8.582;2023-04-06T14:13:39;7.93;;;5.47;;
24557;SDS011;12726;49.148;8.582;2023-04-06T14:16:25;7.00;;;4.63;;
24557;SDS011;12726;49.148;8.582;2023-04-06T14:19:10;7.40;;;5.28;;
24557;SDS011;12726;49.148;8.582;2023-04-06T14:21:56;7.40;;;4.65;;
24557;SDS011;12726;49.148;8.582;2023-04-06T14:24:42;9.32;;;5.18;;
24557;SDS011;12726;49.148;8.582;2023-04-06T14:27:29;8.05;;;4.70;;
24557;SDS011;12726;49.148;8.582;2023-04-06T14:30:14;6.85;;;4.45;;
24557;SDS011;12726;49.148;8.582;2023-04-06T14:33:00;8.05;;;5.35;;
24557;SDS011;12726;49.148;8.582;2023-04-06T14:35:45;6.78;;;4.22;;
24557;SDS011;12726;49.148;8.582;2023-04-06T14:38:30;6.50;;;4.25;;
24557;SDS011;12726;49.148;8.582;2023-04-06T14:41:16;6.18;;;4.53;;
24557;SDS011;12726;49.148;8.582;2023-04-06T14:44:03;5.30;;;4.05;;
24557;SDS011;12726;49.148;8.582;2023-04-06T14:46:49;6.30;;;4.25;;
24557;SDS011;12726;49.148;8.582;2023-04-06T14:49:34;6.95;;;4.13;;
24557;SDS011;12726;49.148;8.582;2023-04-06T14:52:20;5.45;;;3.90;;
24557;SDS011;12726;49.148;8.582;2023-04-06T14:55:05;5.78;;;4.00;;
24557;SDS011;12726;49.148;8.582;2023-04-06T14:57:51;6.00;;;4.47;;
24557;SDS011;12726;49.148;8.582;2023-04-06T15:00:38;7.70;;;4.80;;
24557;SDS011;12726;49.148;8.582;2023-04-06T15:03:23;5.78;;;3.88;;
24557;SDS011;12726;49.148;8.582;2023-04-06T15:06:11;7.85;;;4.40;;
24557;SDS011;12726;49.148;8.582;2023-04-06T15:08:59;9.25;;;4.75;;
24557;SDS011;12726;49.148;8.582;2023-04-06T15:11:44;8.65;;;4.80;;
24557;SDS011;12726;49.148;8.582;2023-04-06T15:14:30;8.15;;;4.40;;
24557;SDS011;12726;49.148;8.582;2023-04-06T15:17:17;7.70;;;5.22;;
24557;SDS011;12726;49.148;8.582;2023-04-06T15:20:03;8.40;;;5.05;;
24557;SDS011;12726;49.148;8.582;2023-04-06T15:22:49;9.00;;;4.88;;
24557;SDS011;12726;49.148;8.582;2023-04-06T15:25:34;10.02;;;5.70;;
24557;SDS011;12726;49.148;8.582;2023-04-06T15:28:19;8.60;;;4.95;;
24557;SDS011;12726;49.148;8.582;2023-04-06T15:31:12;9.48;;;5.45;;
24557;SDS011;12726;49.148;8.582;2023-04-06T15:33:59;7.00;;;4.90;;
24557;SDS011;12726;49.148;8.582;2023-04-06T15:36:45;8.05;;;4.40;;
24557;SDS011;12726;49.148;8.582;2023-04-06T15:39:30;8.38;;;4.80;;
24557;SDS011;12726;49.148;8.582;2023-04-06T15:42:15;10.82;;;4.72;;
24557;SDS011;12726;49.148;8.582;2023-04-06T15:45:00;9.10;;;4.53;;
24557;SDS011;12726;49.148;8.582;2023-04-06T15:47:46;10.73;;;5.30;;
24557;SDS011;12726;49.148;8.582;2023-04-06T15:50:33;9.68;;;4.60;;
24557;SDS011;12726;49.148;8.582;2023-04-06T15:53:18;7.85;;;4.78;;
24557;SDS011;12726;49.148;8.582;2023-04-06T15:56:04;8.77;;;4.93;;
24557;SDS011;12726;49.148;8.582;2023-04-06T15:58:51;9.20;;;4.60;;
24557;SDS011;12726;49.148;8.582;2023-04-06T16:01:36;9.60;;;4.85;;
24557;SDS011;12726;49.148;8.582;2023-04-06T16:04:23;8.82;;;4.47;;
24557;SDS011;12726;49.148;8.582;2023-04-06T16:07:10;9.05;;;4.85;;
24557;SDS011;12726;49.148;8.582;2023-04-06T16:09:55;9.55;;;5.18;;
24557;SDS011;12726;49.148;8.582;2023-04-06T16:12:40;8.98;;;5.40;;
24557;SDS011;12726;49.148;8.582;2023-04-06T16:15:26;9.05;;;4.78;;
24557;SDS011;12726;49.148;8.582;2023-04-06T16:18:12;9.73;;;4.97;;
24557;SDS011;12726;49.148;8.582;2023-04-06T16:20:57;10.55;;;4.80;;
24557;SDS011;12726;49.148;8.582;2023-04-06T16:23:45;7.25;;;4.10;;
24557;SDS011;12726;49.148;8.582;2023-04-06T16:26:30;7.53;;;4.60;;
24557;SDS011;12726;49.148;8.582;2023-04-06T16:29:16;5.78;;;3.78;;
24557;SDS011;12726;49.148;8.582;2023-04-06T16:32:01;6.75;;;4.20;;
24557;SDS011;12726;49.148;8.582;2023-04-06T16:34:47;6.63;;;3.75;;
24557;SDS011;12726;49.148;8.582;2023-04-06T16:37:32;7.15;;;3.75;;